sensor_id;sensor_type;location;lat;lon;timestamp;pressure;altitude;pressure_sealevel;temperature;humidity
43934;BME280;59081;42.706;23.306;2023-08-17T00:01:17;95193.34;;;20.46;83.72
43934;BME280;59081;42.706;23.306;2023-08-17T00:06:18;95185.50;;;20.56;82.28
43934;BME280;59081;42.706;23.306;2023-08-17T00:11:18;95161.53;;;20.38;82.63
43934;BME280;59081;42.706;23.306;2023-08-17T00:16:19;95241.84;;;20.85;82.21
43934;BME280;59081;42.706;23.306;2023-08-17T00:21:20;95202.31;;;20.61;81.50
43934;BME280;59081;42.706;23.306;2023-08-17T00:26:20;95297.72;;;21.17;81.74
43934;BME280;59081;42.706;23.306;2023-08-17T00:31:20;95237.00;;;20.80;81.53
43934;BME280;59081;42.706;23.306;2023-08-17T00:36:21;95202.78;;;20.54;80.71
43934;BME280;59081;42.706;23.306;2023-08-17T00:41:21;95166.13;;;20.46;79.91
43934;BME280;59081;42.706;23.306;2023-08-17T00:46:22;95214.31;;;20.73;79.33
43934;BME280;59081;42.706;23.306;2023-08-17T00:51:24;95226.28;;;20.79;79.72
43934;BME280;59081;42.706;23.306;2023-08-17T00:56:26;95191.09;;;20.56;79.02
43934;BME280;59081;42.706;23.306;2023-08-17T01:01:27;95174.69;;;20.32;79.31
43934;BME280;59081;42.706;23.306;2023-08-17T01:06:29;95145.94;;;20.31;78.22
43934;BME280;59081;42.706;23.306;2023-08-17T01:11:36;95198.03;;;20.71;77.39
43934;BME280;59081;42.706;23.306;2023-08-17T01:16:50;95229.34;;;20.75;77.58
43934;BME280;59081;42.706;23.306;2023-08-17T01:21:57;95156.56;;;20.16;78.06
43934;BME280;59081;42.706;23.306;2023-08-17T01:27:00;95278.56;;;21.04;76.99
43934;BME280;59081;42.706;23.306;2023-08-17T01:32:11;95172.59;;;20.21;76.88
43934;BME280;59081;42.706;23.306;2023-08-17T01:37:18;95168.03;;;20.24;77.42
43934;BME280;59081;42.706;23.306;2023-08-17T01:42:22;95200.63;;;20.32;77.11
43934;BME280;59081;42.706;23.306;2023-08-17T01:47:23;95277.97;;;20.78;76.86
43934;BME280;59081;42.706;23.306;2023-08-17T01:52:26;95196.56;;;20.33;76.78
43934;BME280;59081;42.706;23.306;2023-08-17T01:57:28;95284.38;;;20.90;76.40
43934;BME280;59081;42.706;23.306;2023-08-17T02:02:28;95178.94;;;20.16;76.81
43934;BME280;59081;42.706;23.306;2023-08-17T02:07:29;95219.44;;;20.32;77.24
43934;BME280;59081;42.706;23.306;2023-08-17T02:12:29;95171.47;;;20.02;76.91
43934;BME280;59081;42.706;23.306;2023-08-17T02:17:30;95210.22;;;20.20;76.70
43934;BME280;59081;42.706;23.306;2023-08-17T02:22:30;95243.97;;;20.42;76.97
43934;BME280;59081;42.706;23.306;2023-08-17T02:27:30;95264.59;;;20.50;76.64
43934;BME280;59081;42.706;23.306;2023-08-17T02:32:31;95282.34;;;20.42;77.61
43934;BME280;59081;42.706;23.306;2023-08-17T02:37:32;95226.72;;;20.18;76.48
43934;BME280;59081;42.706;23.306;2023-08-17T02:42:32;95172.25;;;20.02;75.60
43934;BME280;59081;42.706;23.306;2023-08-17T02:47:33;95222.00;;;20.35;74.30
43934;BME280;59081;42.706;23.306;2023-08-17T02:52:33;95136.47;;;19.69;74.15
43934;BME280;59081;42.706;23.306;2023-08-17T02:57:34;95152.78;;;19.82;74.07
43934;BME280;59081;42.706;23.306;2023-08-17T03:02:34;95202.28;;;20.13;73.48
43934;BME280;59081;42.706;23.306;2023-08-17T03:07:35;95210.50;;;20.22;73.63
43934;BME280;59081;42.706;23.306;2023-08-17T03:12:35;95196.38;;;20.00;73.78
43934;BME280;59081;42.706;23.306;2023-08-17T03:17:37;95219.38;;;20.21;73.79
43934;BME280;59081;42.706;23.306;2023-08-17T03:22:37;95206.44;;;20.23;73.31
43934;BME280;59081;42.706;23.306;2023-08-17T03:27:38;95167.38;;;19.97;72.87
43934;BME280;59081;42.706;23.306;2023-08-17T03:32:38;95196.41;;;20.05;72.79
43934;BME280;59081;42.706;23.306;2023-08-17T03:37:39;95154.75;;;19.70;72.78
43934;BME280;59081;42.706;23.306;2023-08-17T03:42:39;95219.22;;;19.98;73.13
43934;BME280;59081;42.706;23.306;2023-08-17T03:47:41;95151.88;;;19.59;72.75
43934;BME280;59081;42.706;23.306;2023-08-17T03:52:42;95235.41;;;20.20;72.35
43934;BME280;59081;42.706;23.306;2023-08-17T03:57:42;95218.31;;;20.12;72.29
43934;BME280;59081;42.706;23.306;2023-08-17T04:02:43;95168.25;;;19.77;72.25
43934;BME280;59081;42.706;23.306;2023-08-17T04:07:44;95152.13;;;19.56;72.69
43934;BME280;59081;42.706;23.306;2023-08-17T04:12:45;95109.03;;;19.36;72.16
43934;BME280;59081;42.706;23.306;2023-08-17T04:17:45;95173.66;;;19.87;71.84
43934;BME280;59081;42.706;23.306;2023-08-17T04:22:45;95174.88;;;20.17;71.48
43934;BME280;59081;42.706;23.306;2023-08-17T04:27:46;95239.13;;;20.43;72.08
43934;BME280;59081;42.706;23.306;2023-08-17T04:32:46;95177.47;;;20.32;71.06
43934;BME280;59081;42.706;23.306;2023-08-17T04:37:52;95196.66;;;20.50;70.01
43934;BME280;59081;42.706;23.306;2023-08-17T04:42:53;95210.97;;;20.63;70.25
43934;BME280;59081;42.706;23.306;2023-08-17T04:47:53;95204.44;;;20.83;71.47
43934;BME280;59081;42.706;23.306;2023-08-17T04:52:54;95180.81;;;20.36;69.44
43934;BME280;59081;42.706;23.306;2023-08-17T04:57:54;95205.97;;;20.84;69.14
43934;BME280;59081;42.706;23.306;2023-08-17T05:02:55;95194.84;;;21.17;67.70
43934;BME280;59081;42.706;23.306;2023-08-17T05:07:56;95154.91;;;21.23;65.17
43934;BME280;59081;42.706;23.306;2023-08-17T05:12:56;95223.22;;;21.64;64.76
43934;BME280;59081;42.706;23.306;2023-08-17T05:17:56;95185.97;;;21.36;63.45
43934;BME280;59081;42.706;23.306;2023-08-17T05:22:57;95210.44;;;21.52;64.37
43934;BME280;59081;42.706;23.306;2023-08-17T05:27:57;95262.75;;;22.11;64.17
43934;BME280;59081;42.706;23.306;2023-08-17T05:32:58;95187.78;;;21.95;62.94
43934;BME280;59081;42.706;23.306;2023-08-17T05:37:58;95235.56;;;22.75;61.98
43934;BME280;59081;42.706;23.306;2023-08-17T05:42:59;95190.88;;;22.71;60.07
43934;BME280;59081;42.706;23.306;2023-08-17T05:47:59;95234.59;;;23.24;59.76
43934;BME280;59081;42.706;23.306;2023-08-17T05:53:00;95284.75;;;23.56;57.80
43934;BME280;59081;42.706;23.306;2023-08-17T05:58:01;95287.44;;;23.37;59.12
43934;BME280;59081;42.706;23.306;2023-08-17T06:03:02;95303.91;;;23.63;60.19
43934;BME280;59081;42.706;23.306;2023-08-17T06:08:03;95199.41;;;23.12;60.68
43934;BME280;59081;42.706;23.306;2023-08-17T06:13:04;95232.88;;;23.57;61.01
43934;BME280;59081;42.706;23.306;2023-08-17T06:18:04;95303.66;;;24.02;61.11
43934;BME280;59081;42.706;23.306;2023-08-17T06:23:05;95233.50;;;23.74;61.86
43934;BME280;59081;42.706;23.306;2023-08-17T06:28:06;95233.94;;;23.89;60.42
43934;BME280;59081;42.706;23.306;2023-08-17T06:33:06;95302.63;;;24.35;61.66
43934;BME280;59081;42.706;23.306;2023-08-17T06:38:07;95233.47;;;23.80;62.27
43934;BME280;59081;42.706;23.306;2023-08-17T06:43:08;95207.66;;;23.81;61.72
43934;BME280;59081;42.706;23.306;2023-08-17T06:48:09;95206.41;;;24.07;61.71
43934;BME280;59081;42.706;23.306;2023-08-17T06:53:10;95233.72;;;24.66;60.05
43934;BME280;59081;42.706;23.306;2023-08-17T06:58:10;95251.34;;;25.15;58.60
43934;BME280;59081;42.706;23.306;2023-08-17T07:03:10;95229.25;;;25.38;57.75
43934;BME280;59081;42.706;23.306;2023-08-17T07:08:11;95195.13;;;25.42;57.47
43934;BME280;59081;42.706;23.306;2023-08-17T07:13:13;95220.91;;;25.83;55.63
43934;BME280;59081;42.706;23.306;2023-08-17T07:18:14;95303.41;;;26.40;53.73
43934;BME280;59081;42.706;23.306;2023-08-17T07:23:14;95248.69;;;25.79;52.67
43934;BME280;59081;42.706;23.306;2023-08-17T07:28:15;95225.97;;;25.72;49.38
43934;BME280;59081;42.706;23.306;2023-08-17T07:33:15;95213.78;;;25.95;50.64
43934;BME280;59081;42.706;23.306;2023-08-17T07:38:16;95166.88;;;25.79;48.47
43934;BME280;59081;42.706;23.306;2023-08-17T07:43:16;95214.78;;;26.30;43.07
43934;BME280;59081;42.706;23.306;2023-08-17T07:48:17;95230.88;;;26.16;45.29
43934;BME280;59081;42.706;23.306;2023-08-17T07:53:18;95244.69;;;26.78;44.43
43934;BME280;59081;42.706;23.306;2023-08-17T07:58:18;95298.16;;;27.42;43.35
43934;BME280;59081;42.706;23.306;2023-08-17T08:03:19;95196.97;;;26.75;43.49
43934;BME280;59081;42.706;23.306;2023-08-17T08:08:19;95233.19;;;27.63;42.92
43934;BME280;59081;42.706;23.306;2023-08-17T08:13:20;95193.97;;;27.20;42.49
43934;BME280;59081;42.706;23.306;2023-08-17T08:18:20;95213.63;;;27.38;40.40
43934;BME280;59081;42.706;23.306;2023-08-17T08:23:21;95260.34;;;27.79;40.54
43934;BME280;59081;42.706;23.306;2023-08-17T08:28:21;95207.41;;;27.87;40.15
43934;BME280;59081;42.706;23.306;2023-08-17T08:33:22;95213.41;;;28.04;38.84
43934;BME280;59081;42.706;23.306;2023-08-17T08:38:24;95209.13;;;28.11;39.74
43934;BME280;59081;42.706;23.306;2023-08-17T08:43:24;95230.06;;;28.29;39.67
43934;BME280;59081;42.706;23.306;2023-08-17T08:48:26;95193.91;;;28.42;39.54
43934;BME280;59081;42.706;23.306;2023-08-17T08:53:38;95217.28;;;28.85;38.23
43934;BME280;59081;42.706;23.306;2023-08-17T08:58:39;95207.53;;;28.72;38.95
43934;BME280;59081;42.706;23.306;2023-08-17T09:03:40;95179.50;;;28.90;39.34
43934;BME280;59081;42.706;23.306;2023-08-17T09:08:43;95252.81;;;29.58;38.01
43934;BME280;59081;42.706;23.306;2023-08-17T09:13:45;95200.41;;;29.15;37.97
43934;BME280;59081;42.706;23.306;2023-08-17T09:18:45;95238.25;;;29.61;37.60
43934;BME280;59081;42.706;23.306;2023-08-17T09:23:54;95234.13;;;29.70;37.44
43934;BME280;59081;42.706;23.306;2023-08-17T09:28:55;95188.06;;;29.49;37.27
43934;BME280;59081;42.706;23.306;2023-08-17T09:33:56;95234.78;;;29.99;36.87
43934;BME280;59081;42.706;23.306;2023-08-17T09:38:57;95224.16;;;29.99;36.42
43934;BME280;59081;42.706;23.306;2023-08-17T09:43:57;95142.75;;;29.94;36.16
43934;BME280;59081;42.706;23.306;2023-08-17T09:48:57;95217.75;;;30.67;35.82
43934;BME280;59081;42.706;23.306;2023-08-17T09:53:58;95185.91;;;30.76;34.84
43934;BME280;59081;42.706;23.306;2023-08-17T09:58:58;95148.28;;;31.08;33.79
43934;BME280;59081;42.706;23.306;2023-08-17T10:03:59;95079.63;;;30.57;32.22
43934;BME280;59081;42.706;23.306;2023-08-17T10:09:01;95179.34;;;31.29;31.28
43934;BME280;59081;42.706;23.306;2023-08-17T10:14:09;95116.47;;;30.95;31.42
43934;BME280;59081;42.706;23.306;2023-08-17T10:24:34;95189.66;;;32.14;31.07
43934;BME280;59081;42.706;23.306;2023-08-17T10:29:38;95099.66;;;32.11;30.25
43934;BME280;59081;42.706;23.306;2023-08-17T10:34:39;95192.00;;;31.36;30.06
43934;BME280;59081;42.706;23.306;2023-08-17T10:39:47;95112.72;;;31.65;30.09
43934;BME280;59081;42.706;23.306;2023-08-17T10:44:48;95123.97;;;31.88;29.87
43934;BME280;59081;42.706;23.306;2023-08-17T10:49:57;95090.75;;;32.07;29.57
43934;BME280;59081;42.706;23.306;2023-08-17T10:55:05;95117.50;;;31.87;28.75
43934;BME280;59081;42.706;23.306;2023-08-17T11:00:20;95078.53;;;32.14;30.93
43934;BME280;59081;42.706;23.306;2023-08-17T11:10:47;95096.31;;;32.99;29.36
43934;BME280;59081;42.706;23.306;2023-08-17T11:15:48;95147.09;;;32.83;29.34
43934;BME280;59081;42.706;23.306;2023-08-17T11:20:49;95056.63;;;32.76;29.07
43934;BME280;59081;42.706;23.306;2023-08-17T11:25:53;95059.41;;;33.28;29.04
43934;BME280;59081;42.706;23.306;2023-08-17T11:30:58;95131.38;;;34.07;29.25
43934;BME280;59081;42.706;23.306;2023-08-17T11:36:00;95130.13;;;33.91;30.69
43934;BME280;59081;42.706;23.306;2023-08-17T11:41:02;95032.03;;;32.98;28.42
43934;BME280;59081;42.706;23.306;2023-08-17T11:46:03;95140.47;;;33.42;29.51
43934;BME280;59081;42.706;23.306;2023-08-17T11:51:04;95121.09;;;34.31;28.15
43934;BME280;59081;42.706;23.306;2023-08-17T11:56:06;95054.88;;;33.79;28.47
43934;BME280;59081;42.706;23.306;2023-08-17T12:01:09;95119.50;;;34.57;28.21
43934;BME280;59081;42.706;23.306;2023-08-17T12:06:10;95056.59;;;33.65;29.20
43934;BME280;59081;42.706;23.306;2023-08-17T12:11:20;95042.63;;;33.32;29.93
43934;BME280;59081;42.706;23.306;2023-08-17T12:16:23;95044.94;;;34.26;31.31
43934;BME280;59081;42.706;23.306;2023-08-17T12:21:24;95046.19;;;34.52;30.83
43934;BME280;59081;42.706;23.306;2023-08-17T12:26:25;95117.88;;;34.73;31.20
43934;BME280;59081;42.706;23.306;2023-08-17T12:31:25;94975.03;;;33.81;32.50
43934;BME280;59081;42.706;23.306;2023-08-17T12:36:26;95084.94;;;33.80;32.33
43934;BME280;59081;42.706;23.306;2023-08-17T12:41:27;94967.53;;;32.85;32.93
43934;BME280;59081;42.706;23.306;2023-08-17T12:46:27;95101.06;;;33.85;33.58
43934;BME280;59081;42.706;23.306;2023-08-17T12:51:28;94973.56;;;33.16;32.96
43934;BME280;59081;42.706;23.306;2023-08-17T12:56:29;95056.00;;;33.93;33.08
43934;BME280;59081;42.706;23.306;2023-08-17T13:01:29;95095.94;;;33.30;33.57
43934;BME280;59081;42.706;23.306;2023-08-17T13:06:30;95081.97;;;32.90;34.30
43934;BME280;59081;42.706;23.306;2023-08-17T13:11:30;95051.78;;;32.52;35.49
43934;BME280;59081;42.706;23.306;2023-08-17T13:16:30;95047.91;;;32.57;35.02
43934;BME280;59081;42.706;23.306;2023-08-17T13:21:31;95042.53;;;32.44;34.42
43934;BME280;59081;42.706;23.306;2023-08-17T13:26:31;95070.41;;;32.88;34.56
43934;BME280;59081;42.706;23.306;2023-08-17T13:31:32;95076.34;;;32.65;34.45
43934;BME280;59081;42.706;23.306;2023-08-17T13:36:33;95109.06;;;32.22;36.01
43934;BME280;59081;42.706;23.306;2023-08-17T13:41:33;95032.44;;;32.08;35.41
43934;BME280;59081;42.706;23.306;2023-08-17T13:46:34;95044.63;;;32.43;33.98
43934;BME280;59081;42.706;23.306;2023-08-17T13:51:34;95082.31;;;32.76;34.76
43934;BME280;59081;42.706;23.306;2023-08-17T13:56:34;95048.56;;;31.64;35.93
43934;BME280;59081;42.706;23.306;2023-08-17T14:01:35;94978.97;;;31.00;35.65
43934;BME280;59081;42.706;23.306;2023-08-17T14:06:35;94960.09;;;31.44;34.30
43934;BME280;59081;42.706;23.306;2023-08-17T14:11:36;95027.91;;;32.05;34.21
43934;BME280;59081;42.706;23.306;2023-08-17T14:16:36;95082.66;;;31.79;35.35
43934;BME280;59081;42.706;23.306;2023-08-17T14:21:37;94986.63;;;31.47;34.08
43934;BME280;59081;42.706;23.306;2023-08-17T14:26:37;95090.78;;;32.49;33.80
43934;BME280;59081;42.706;23.306;2023-08-17T14:31:38;95030.63;;;32.72;32.08
43934;BME280;59081;42.706;23.306;2023-08-17T14:36:38;95085.31;;;32.02;34.67
43934;BME280;59081;42.706;23.306;2023-08-17T14:41:39;94993.66;;;31.71;33.50
43934;BME280;59081;42.706;23.306;2023-08-17T14:46:39;95028.53;;;32.90;32.05
43934;BME280;59081;42.706;23.306;2023-08-17T14:51:42;95040.53;;;32.71;31.76
43934;BME280;59081;42.706;23.306;2023-08-17T14:56:43;95031.69;;;32.94;32.25
43934;BME280;59081;42.706;23.306;2023-08-17T15:01:44;95036.31;;;33.34;31.40
43934;BME280;59081;42.706;23.306;2023-08-17T15:06:44;95012.28;;;33.10;30.98
43934;BME280;59081;42.706;23.306;2023-08-17T15:11:45;95080.47;;;33.60;30.41
43934;BME280;59081;42.706;23.306;2023-08-17T15:16:46;95044.03;;;32.97;31.19
43934;BME280;59081;42.706;23.306;2023-08-17T15:21:46;95032.13;;;32.56;32.22
43934;BME280;59081;42.706;23.306;2023-08-17T15:26:47;95082.97;;;32.67;32.89
43934;BME280;59081;42.706;23.306;2023-08-17T15:31:47;94961.25;;;31.66;33.77
43934;BME280;59081;42.706;23.306;2023-08-17T15:36:48;94962.34;;;31.21;34.46
43934;BME280;59081;42.706;23.306;2023-08-17T15:41:48;95054.06;;;31.37;34.98
43934;BME280;59081;42.706;23.306;2023-08-17T15:46:49;95037.25;;;31.24;35.31
43934;BME280;59081;42.706;23.306;2023-08-17T15:51:49;95090.53;;;31.31;35.94
43934;BME280;59081;42.706;23.306;2023-08-17T15:56:49;95046.16;;;30.25;37.56
43934;BME280;59081;42.706;23.306;2023-08-17T16:01:50;95010.78;;;29.88;37.73
43934;BME280;59081;42.706;23.306;2023-08-17T16:06:51;95091.59;;;29.79;39.09
43934;BME280;59081;42.706;23.306;2023-08-17T16:11:52;95044.88;;;29.50;39.48
43934;BME280;59081;42.706;23.306;2023-08-17T16:16:53;94974.16;;;28.77;39.82
43934;BME280;59081;42.706;23.306;2023-08-17T16:21:54;95100.69;;;29.70;39.68
43934;BME280;59081;42.706;23.306;2023-08-17T16:26:54;95028.88;;;29.01;40.28
43934;BME280;59081;42.706;23.306;2023-08-17T16:32:02;95090.19;;;29.19;41.13
43934;BME280;59081;42.706;23.306;2023-08-17T16:37:03;95009.81;;;28.58;41.32
43934;BME280;59081;42.706;23.306;2023-08-17T16:42:04;95073.38;;;28.77;41.63
43934;BME280;59081;42.706;23.306;2023-08-17T16:47:04;95042.78;;;28.40;41.89
43934;BME280;59081;42.706;23.306;2023-08-17T16:52:05;95035.53;;;28.24;42.20
43934;BME280;59081;42.706;23.306;2023-08-17T16:57:06;95002.44;;;27.83;42.27
43934;BME280;59081;42.706;23.306;2023-08-17T17:02:06;95025.84;;;27.83;42.79
43934;BME280;59081;42.706;23.306;2023-08-17T17:07:07;95122.03;;;28.53;42.98
43934;BME280;59081;42.706;23.306;2023-08-17T17:12:08;95019.16;;;27.52;43.19
43934;BME280;59081;42.706;23.306;2023-08-17T17:17:08;94933.16;;;26.85;43.50
43934;BME280;59081;42.706;23.306;2023-08-17T17:22:09;95054.63;;;27.32;44.36
43934;BME280;59081;42.706;23.306;2023-08-17T17:27:10;95096.50;;;27.55;44.22
43934;BME280;59081;42.706;23.306;2023-08-17T17:32:10;95029.09;;;26.91;44.95
43934;BME280;59081;42.706;23.306;2023-08-17T17:37:10;95111.69;;;27.44;45.03
43934;BME280;59081;42.706;23.306;2023-08-17T17:42:11;95150.09;;;27.39;45.87
43934;BME280;59081;42.706;23.306;2023-08-17T17:47:11;95056.69;;;26.64;46.07
43934;BME280;59081;42.706;23.306;2023-08-17T17:52:12;95125.00;;;26.89;46.47
43934;BME280;59081;42.706;23.306;2023-08-17T17:57:12;95085.47;;;26.76;46.48
43934;BME280;59081;42.706;23.306;2023-08-17T18:02:13;95082.31;;;26.79;46.06
43934;BME280;59081;42.706;23.306;2023-08-17T18:07:13;94985.41;;;25.84;46.74
43934;BME280;59081;42.706;23.306;2023-08-17T18:12:14;95078.78;;;26.39;47.08
43934;BME280;59081;42.706;23.306;2023-08-17T18:17:17;95039.69;;;26.43;46.55
43934;BME280;59081;42.706;23.306;2023-08-17T18:22:17;95072.66;;;26.61;45.80
43934;BME280;59081;42.706;23.306;2023-08-17T18:27:18;95023.81;;;26.00;46.56
43934;BME280;59081;42.706;23.306;2023-08-17T18:32:20;95034.13;;;25.98;47.09
43934;BME280;59081;42.706;23.306;2023-08-17T18:37:20;95156.66;;;26.74;47.25
43934;BME280;59081;42.706;23.306;2023-08-17T18:42:24;95191.63;;;26.71;48.26
43934;BME280;59081;42.706;23.306;2023-08-17T18:47:27;95086.81;;;26.09;47.83
43934;BME280;59081;42.706;23.306;2023-08-17T18:52:27;95048.38;;;25.79;47.86
43934;BME280;59081;42.706;23.306;2023-08-17T18:57:28;95122.97;;;26.10;48.65
43934;BME280;59081;42.706;23.306;2023-08-17T19:02:29;95062.66;;;25.68;49.21
43934;BME280;59081;42.706;23.306;2023-08-17T19:07:29;95059.84;;;25.81;49.06
43934;BME280;59081;42.706;23.306;2023-08-17T19:12:30;95101.09;;;25.84;49.83
43934;BME280;59081;42.706;23.306;2023-08-17T19:17:30;95153.69;;;26.27;49.74
43934;BME280;59081;42.706;23.306;2023-08-17T19:22:31;95097.22;;;26.00;49.59
43934;BME280;59081;42.706;23.306;2023-08-17T19:27:32;95024.06;;;24.99;51.58
43934;BME280;59081;42.706;23.306;2023-08-17T19:32:38;95125.50;;;25.82;51.18
43934;BME280;59081;42.706;23.306;2023-08-17T19:37:41;95027.88;;;25.02;51.74
43934;BME280;59081;42.706;23.306;2023-08-17T19:42:42;95135.94;;;25.55;51.94
43934;BME280;59081;42.706;23.306;2023-08-17T19:47:42;95173.66;;;25.71;52.29
43934;BME280;59081;42.706;23.306;2023-08-17T19:52:43;95060.16;;;24.82;52.74
43934;BME280;59081;42.706;23.306;2023-08-17T19:57:43;95019.97;;;24.62;53.00
43934;BME280;59081;42.706;23.306;2023-08-17T20:02:44;95199.63;;;25.82;52.94
43934;BME280;59081;42.706;23.306;2023-08-17T20:07:46;95087.19;;;25.41;51.84
43934;BME280;59081;42.706;23.306;2023-08-17T20:12:46;95214.94;;;25.87;53.06
43934;BME280;59081;42.706;23.306;2023-08-17T20:17:47;95046.59;;;24.61;53.76
43934;BME280;59081;42.706;23.306;2023-08-17T20:22:48;95091.91;;;25.01;53.40
43934;BME280;59081;42.706;23.306;2023-08-17T20:27:48;95079.56;;;24.85;53.68
43934;BME280;59081;42.706;23.306;2023-08-17T20:32:49;95116.69;;;25.08;53.47
43934;BME280;59081;42.706;23.306;2023-08-17T20:37:49;95117.59;;;24.97;53.87
43934;BME280;59081;42.706;23.306;2023-08-17T20:42:50;95218.88;;;25.46;54.17
43934;BME280;59081;42.706;23.306;2023-08-17T20:47:54;95132.34;;;24.85;53.73
43934;BME280;59081;42.706;23.306;2023-08-17T20:52:54;95136.69;;;24.86;53.59
43934;BME280;59081;42.706;23.306;2023-08-17T20:57:55;95148.56;;;24.97;53.35
43934;BME280;59081;42.706;23.306;2023-08-17T21:02:55;95084.38;;;24.53;52.75
43934;BME280;59081;42.706;23.306;2023-08-17T21:07:56;95136.31;;;24.95;53.01
43934;BME280;59081;42.706;23.306;2023-08-17T21:12:57;95227.50;;;25.35;53.34
43934;BME280;59081;42.706;23.306;2023-08-17T21:17:58;95217.81;;;25.30;53.52
43934;BME280;59081;42.706;23.306;2023-08-17T21:22:59;95145.44;;;24.82;53.46
43934;BME280;59081;42.706;23.306;2023-08-17T21:27:59;95161.28;;;24.85;53.08
43934;BME280;59081;42.706;23.306;2023-08-17T21:32:59;95183.69;;;24.96;53.35
43934;BME280;59081;42.706;23.306;2023-08-17T21:38:00;95156.44;;;24.61;53.34
43934;BME280;59081;42.706;23.306;2023-08-17T21:43:00;95168.88;;;24.72;53.23
43934;BME280;59081;42.706;23.306;2023-08-17T21:48:01;95238.84;;;25.11;53.15
43934;BME280;59081;42.706;23.306;2023-08-17T21:53:01;95100.28;;;24.26;53.10
43934;BME280;59081;42.706;23.306;2023-08-17T21:58:02;95133.34;;;24.44;53.16
43934;BME280;59081;42.706;23.306;2023-08-17T22:03:03;95213.34;;;24.79;53.72
43934;BME280;59081;42.706;23.306;2023-08-17T22:08:05;95108.75;;;24.02;54.23
43934;BME280;59081;42.706;23.306;2023-08-17T22:13:06;95207.97;;;24.32;55.86
43934;BME280;59081;42.706;23.306;2023-08-17T22:18:07;95119.31;;;23.36;57.11
43934;BME280;59081;42.706;23.306;2023-08-17T22:23:07;95197.28;;;23.65;58.14
43934;BME280;59081;42.706;23.306;2023-08-17T22:28:08;95156.88;;;23.33;58.77
43934;BME280;59081;42.706;23.306;2023-08-17T22:33:08;95148.16;;;23.01;58.83
43934;BME280;59081;42.706;23.306;2023-08-17T22:38:09;95169.38;;;22.96;59.06
43934;BME280;59081;42.706;23.306;2023-08-17T22:43:09;95146.47;;;22.75;59.10
43934;BME280;59081;42.706;23.306;2023-08-17T22:48:10;95276.06;;;23.59;58.53
43934;BME280;59081;42.706;23.306;2023-08-17T22:53:10;95204.53;;;23.08;58.36
43934;BME280;59081;42.706;23.306;2023-08-17T22:58:10;95240.69;;;23.29;58.32
43934;BME280;59081;42.706;23.306;2023-08-17T23:03:11;95180.16;;;22.81;57.79
43934;BME280;59081;42.706;23.306;2023-08-17T23:08:12;95265.72;;;23.32;57.83
43934;BME280;59081;42.706;23.306;2023-08-17T23:13:13;95214.75;;;23.11;57.62
43934;BME280;59081;42.706;23.306;2023-08-17T23:18:13;95145.50;;;22.62;57.63
43934;BME280;59081;42.706;23.306;2023-08-17T23:23:14;95112.47;;;22.32;57.46
43934;BME280;59081;42.706;23.306;2023-08-17T23:28:14;95222.41;;;23.05;57.75
43934;BME280;59081;42.706;23.306;2023-08-17T23:33:15;95201.59;;;22.84;58.14
43934;BME280;59081;42.706;23.306;2023-08-17T23:38:15;95295.38;;;23.27;58.31
43934;BME280;59081;42.706;23.306;2023-08-17T23:43:16;95202.19;;;22.60;57.86
43934;BME280;59081;42.706;23.306;2023-08-17T23:48:16;95187.69;;;22.50;58.26
43934;BME280;59081;42.706;23.306;2023-08-17T23:53:17;95166.53;;;22.38;58.41
43934;BME280;59081;42.706;23.306;2023-08-17T23:58:17;95189.22;;;22.40;58.42
